Time,TemperatureF,DewpointF,PressureIn,WindDirection,WindDirectionDegrees,WindSpeedMPH,WindSpeedGustMPH,Humidity,HourlyPrecipIn,Conditions,Clouds,dailyrainin,SoftwareType,DateUTC
2013-06-22 10:40:00,60.0,-99.9,30.08,NW,310,7.0,9.0,-999,-99.99,,,-99.99,,2013-06-22 14:40:00,
2013-06-22 11:02:00,60.0,-99.9,30.08,NW,310,7.0,9.0,-999,-99.99,,,-99.99,,2013-06-22 15:02:00,
2013-06-22 11:12:00,60.0,-99.9,30.08,NW,310,7.0,9.0,-999,-99.99,,,-99.99,,2013-06-22 15:12:00,
2013-06-22 11:22:00,60.0,-99.9,30.08,NW,310,7.0,9.0,-999,-99.99,,,-99.99,,2013-06-22 15:22:00,
2013-06-22 11:34:00,60.0,-99.9,30.08,NW,310,7.0,9.0,-999,-99.99,,,-99.99,,2013-06-22 15:34:00,
2013-06-22 12:40:00,63.0,-99.9,30.03,NNE,30,8.0,13.0,-999,-99.99,,,-99.99,,2013-06-22 16:40:00,
2013-06-22 13:02:00,63.0,-99.9,30.03,NNE,30,8.0,13.0,-999,-99.99,,,-99.99,,2013-06-22 17:02:00,
2013-06-22 13:11:00,63.0,-99.9,30.03,NNE,30,8.0,13.0,-999,-99.99,,,-99.99,,2013-06-22 17:11:00,
2013-06-22 13:22:00,63.0,-99.9,30.03,NNE,30,8.0,13.0,-999,-99.99,,,-99.99,,2013-06-22 17:22:00,
2013-06-22 13:34:00,63.0,-99.9,30.03,NNE,30,8.0,13.0,-999,-99.99,,,-99.99,,2013-06-22 17:34:00,
2013-06-22 13:40:00,59.0,-99.9,30.02,East,90,9.0,10.0,-999,-99.99,,,-99.99,,2013-06-22 17:40:00,
2013-06-22 14:02:00,59.0,-99.9,30.02,East,90,9.0,10.0,-999,-99.99,,,-99.99,,2013-06-22 18:02:00,
2013-06-22 14:12:00,59.0,-99.9,30.02,East,90,9.0,10.0,-999,-99.99,,,-99.99,,2013-06-22 18:12:00,
2013-06-22 14:23:00,59.0,-99.9,30.02,East,90,9.0,10.0,-999,-99.99,,,-99.99,,2013-06-22 18:23:00,
2013-06-22 14:34:00,59.0,-99.9,30.02,East,90,9.0,10.0,-999,-99.99,,,-99.99,,2013-06-22 18:34:00,
2013-06-22 14:40:00,58.0,-99.9,30.04,SSE,150,10.0,14.0,-999,-99.99,,,-99.99,,2013-06-22 18:40:00,
2013-06-22 15:01:00,58.0,-99.9,30.04,SSE,150,10.0,14.0,-999,-99.99,,,-99.99,,2013-06-22 19:01:00,
2013-06-22 15:12:00,58.0,-99.9,30.04,SSE,150,10.0,14.0,-999,-99.99,,,-99.99,,2013-06-22 19:12:00,
2013-06-22 15:22:00,58.0,-99.9,30.04,SSE,150,10.0,14.0,-999,-99.99,,,-99.99,,2013-06-22 19:22:00,
2013-06-22 15:33:00,58.0,-99.9,30.04,SSE,150,10.0,14.0,-999,-99.99,,,-99.99,,2013-06-22 19:33:00,
2013-06-22 15:40:00,60.0,-99.9,30.07,North,0,0.0,3.0,-999,-99.99,,,-99.99,,2013-06-22 19:40:00,
2013-06-22 16:02:00,60.0,-99.9,30.07,North,0,0.0,3.0,-999,-99.99,,,-99.99,,2013-06-22 20:02:00,
2013-06-22 16:11:00,60.0,-99.9,30.07,North,0,0.0,3.0,-999,-99.99,,,-99.99,,2013-06-22 20:11:00,
2013-06-22 16:22:00,60.0,-99.9,30.07,North,0,0.0,3.0,-999,-99.99,,,-99.99,,2013-06-22 20:22:00,
2013-06-22 16:34:00,60.0,-99.9,30.07,North,0,0.0,3.0,-999,-99.99,,,-99.99,,2013-06-22 20:34:00,
2013-06-22 16:40:00,59.0,-99.9,30.07,NW,320,6.0,9.0,-999,-99.99,,,-99.99,,2013-06-22 20:40:00,
2013-06-22 17:01:00,59.0,-99.9,30.07,NW,320,6.0,9.0,-999,-99.99,,,-99.99,,2013-06-22 21:01:00,
2013-06-22 17:12:00,59.0,-99.9,30.07,NW,320,6.0,9.0,-999,-99.99,,,-99.99,,2013-06-22 21:12:00,
2013-06-22 17:22:00,59.0,-99.9,30.07,NW,320,6.0,9.0,-999,-99.99,,,-99.99,,2013-06-22 21:22:00,
2013-06-22 17:34:00,59.0,-99.9,30.07,NW,320,6.0,9.0,-999,-99.99,,,-99.99,,2013-06-22 21:34:00,
2013-06-22 17:40:00,60.0,-99.9,30.05,NW,320,7.0,7.0,-999,-99.99,,,-99.99,,2013-06-22 21:40:00,
2013-06-22 18:02:00,60.0,-99.9,30.05,NW,320,7.0,7.0,-999,-99.99,,,-99.99,,2013-06-22 22:02:00,
2013-06-22 18:12:00,60.0,-99.9,30.05,NW,320,7.0,7.0,-999,-99.99,,,-99.99,,2013-06-22 22:12:00,
2013-06-22 18:24:00,60.0,-99.9,30.05,NW,320,7.0,7.0,-999,-99.99,,,-99.99,,2013-06-22 22:24:00,
2013-06-22 18:33:00,60.0,-99.9,30.05,NW,320,7.0,7.0,-999,-99.99,,,-99.99,,2013-06-22 22:33:00,
2013-06-22 18:40:00,61.0,-99.9,30.02,NNW,340,3.0,5.0,-999,-99.99,,,-99.99,,2013-06-22 22:40:00,
2013-06-22 19:02:00,61.0,-99.9,30.02,NNW,340,3.0,5.0,-999,-99.99,,,-99.99,,2013-06-22 23:02:00,
2013-06-22 19:11:00,61.0,-99.9,30.02,NNW,340,3.0,5.0,-999,-99.99,,,-99.99,,2013-06-22 23:11:00,
2013-06-22 19:22:00,61.0,-99.9,30.02,NNW,340,3.0,5.0,-999,-99.99,,,-99.99,,2013-06-22 23:22:00,
2013-06-22 19:30:00,62.0,-99.9,30.04,ESE,110,5.0,5.0,-999,-99.99,,,-99.99,,2013-06-22 23:30:00,
2013-06-22 19:34:00,61.0,-99.9,30.02,NNW,340,3.0,5.0,-999,-99.99,,,-99.99,,2013-06-22 23:34:00,
2013-06-22 20:01:00,62.0,-99.9,30.04,ESE,110,5.0,5.0,-999,-99.99,,,-99.99,,2013-06-23 00:01:00,
2013-06-22 20:11:00,62.0,-99.9,30.04,ESE,110,5.0,5.0,-999,-99.99,,,-99.99,,2013-06-23 00:11:00,
2013-06-22 20:22:00,62.0,-99.9,30.04,ESE,110,5.0,5.0,-999,-99.99,,,-99.99,,2013-06-23 00:22:00,
2013-06-22 21:01:00,60.0,-99.9,30.03,SE,140,5.0,6.0,-999,-99.99,,,-99.99,,2013-06-23 01:01:00,
2013-06-22 21:12:00,60.0,-99.9,30.03,SE,140,5.0,6.0,-999,-99.99,,,-99.99,,2013-06-23 01:12:00,
2013-06-22 21:22:00,60.0,-99.9,30.03,SE,140,5.0,6.0,-999,-99.99,,,-99.99,,2013-06-23 01:22:00,
2013-06-22 21:32:00,60.0,-99.9,30.03,SE,140,5.0,6.0,-999,-99.99,,,-99.99,,2013-06-23 01:32:00,
2013-06-22 21:40:00,59.0,-99.9,30.00,ESE,120,5.0,7.0,-999,-99.99,,,-99.99,,2013-06-23 01:40:00,
2013-06-22 21:42:00,59.0,-99.9,30.00,ESE,120,5.0,15.0,-999,-99.99,,,-99.99,,2013-06-23 01:42:00,
2013-06-22 21:52:00,59.0,-99.9,30.00,ESE,120,5.0,15.0,-999,-99.99,,,-99.99,,2013-06-23 01:52:00,
2013-06-22 22:01:00,59.0,-99.9,30.00,ESE,120,5.0,7.0,-999,-99.99,,,-99.99,,2013-06-23 02:01:00,
2013-06-22 22:11:00,59.0,-99.9,30.00,ESE,120,5.0,7.0,-999,-99.99,,,-99.99,,2013-06-23 02:11:00,
2013-06-22 22:21:00,59.0,-99.9,30.00,ESE,120,5.0,7.0,-999,-99.99,,,-99.99,,2013-06-23 02:21:00,
2013-06-22 22:31:00,59.0,-99.9,30.00,ESE,120,5.0,7.0,-999,-99.99,,,-99.99,,2013-06-23 02:31:00,
2013-06-22 22:40:00,58.0,-99.9,30.01,ESE,120,5.0,7.0,-999,-99.99,,,-99.99,,2013-06-23 02:40:00,
2013-06-22 23:01:00,58.0,-99.9,30.01,ESE,120,5.0,7.0,-999,-99.99,,,-99.99,,2013-06-23 03:01:00,
2013-06-22 23:21:00,58.0,-99.9,30.01,ESE,120,5.0,7.0,-999,-99.99,,,-99.99,,2013-06-23 03:21:00,
2013-06-22 23:31:00,58.0,-99.9,30.01,ESE,120,5.0,7.0,-999,-99.99,,,-99.99,,2013-06-23 03:31:00,
2013-06-22 23:40:00,58.0,-99.9,30.01,SE,130,8.0,9.0,-999,-99.99,,,-99.99,,2013-06-23 03:40:00,